sensor_id;sensor_type;location;lat;lon;timestamp;noise_LAeq;noise_LA_min;noise_LA_max;noise_LA01;noise_LA95
64079;Laerm;51042;49.696;10.808;2022-10-15T00:02:09;52.98;42.05;71.18;;
64079;Laerm;51042;49.696;10.808;2022-10-15T00:04:34;61.14;44.71;71.54;;
64079;Laerm;51042;49.696;10.808;2022-10-15T00:07:01;53.59;44.28;68.56;;
64079;Laerm;51042;49.696;10.808;2022-10-15T00:09:27;55.76;43.91;79.59;;
64079;Laerm;51042;49.696;10.808;2022-10-15T00:11:52;55.26;45.15;79.58;;
64079;Laerm;51042;49.696;10.808;2022-10-15T00:14:17;65.69;45.81;81.53;;
64079;Laerm;51042;49.696;10.808;2022-10-15T00:16:43;57.01;46.32;75.26;;
64079;Laerm;51042;49.696;10.808;2022-10-15T00:19:09;50.23;46.85;65.43;;
64079;Laerm;51042;49.696;10.808;2022-10-15T00:21:34;54.85;47.56;68.96;;
64079;Laerm;51042;49.696;10.808;2022-10-15T00:24:00;51.61;47.88;69.94;;
64079;Laerm;51042;49.696;10.808;2022-10-15T00:26:27;51.59;48.38;72.85;;
64079;Laerm;51042;49.696;10.808;2022-10-15T00:28:55;55.83;48.98;80.76;;
64079;Laerm;51042;49.696;10.808;2022-10-15T00:31:22;51.84;48.16;64.40;;
64079;Laerm;51042;49.696;10.808;2022-10-15T00:33:51;55.32;47.49;73.11;;
64079;Laerm;51042;49.696;10.808;2022-10-15T00:36:20;59.06;46.87;73.19;;
64079;Laerm;51042;49.696;10.808;2022-10-15T00:38:45;54.62;47.03;75.33;;
64079;Laerm;51042;49.696;10.808;2022-10-15T00:41:32;50.40;45.22;74.87;;
64079;Laerm;51042;49.696;10.808;2022-10-15T00:46:49;55.65;43.82;72.46;;
64079;Laerm;51042;49.696;10.808;2022-10-15T00:49:23;53.21;43.56;68.78;;
64079;Laerm;51042;49.696;10.808;2022-10-15T00:52:00;46.38;42.68;54.99;;
64079;Laerm;51042;49.696;10.808;2022-10-15T00:54:29;46.39;42.78;58.41;;
64079;Laerm;51042;49.696;10.808;2022-10-15T00:56:55;52.17;41.91;66.60;;
64079;Laerm;51042;49.696;10.808;2022-10-15T00:59:23;45.92;42.16;64.97;;
64079;Laerm;51042;49.696;10.808;2022-10-15T01:01:50;52.04;42.46;66.87;;
64079;Laerm;51042;49.696;10.808;2022-10-15T01:04:16;46.16;42.48;51.11;;
64079;Laerm;51042;49.696;10.808;2022-10-15T01:06:43;46.02;42.46;50.57;;
64079;Laerm;51042;49.696;10.808;2022-10-15T01:09:09;53.67;42.21;68.75;;
64079;Laerm;51042;49.696;10.808;2022-10-15T01:11:40;51.13;42.65;66.78;;
64079;Laerm;51042;49.696;10.808;2022-10-15T01:16:48;61.40;42.56;78.86;;
64079;Laerm;51042;49.696;10.808;2022-10-15T01:22:02;46.37;42.78;53.93;;
64079;Laerm;51042;49.696;10.808;2022-10-15T01:24:42;52.93;42.67;68.63;;
64079;Laerm;51042;49.696;10.808;2022-10-15T01:27:33;46.09;42.43;53.97;;
64079;Laerm;51042;49.696;10.808;2022-10-15T01:41:22;46.17;42.50;59.84;;
64079;Laerm;51042;49.696;10.808;2022-10-15T01:44:02;54.78;42.80;73.22;;
64079;Laerm;51042;49.696;10.808;2022-10-15T01:46:45;46.10;42.41;53.93;;
64079;Laerm;51042;49.696;10.808;2022-10-15T01:49:14;51.73;41.91;68.49;;
64079;Laerm;51042;49.696;10.808;2022-10-15T01:51:42;45.58;41.99;52.07;;
64079;Laerm;51042;49.696;10.808;2022-10-15T01:54:11;54.78;42.29;71.41;;
64079;Laerm;51042;49.696;10.808;2022-10-15T01:56:39;45.71;41.54;54.24;;
64079;Laerm;51042;49.696;10.808;2022-10-15T01:59:06;45.90;42.33;66.38;;
64079;Laerm;51042;49.696;10.808;2022-10-15T02:01:34;50.81;44.42;66.81;;
64079;Laerm;51042;49.696;10.808;2022-10-15T02:03:59;54.73;45.47;69.69;;
64079;Laerm;51042;49.696;10.808;2022-10-15T02:09:22;47.33;44.05;66.09;;
64079;Laerm;51042;49.696;10.808;2022-10-15T02:17:42;47.90;43.89;66.20;;
64079;Laerm;51042;49.696;10.808;2022-10-15T02:20:35;51.30;45.52;84.30;;
64079;Laerm;51042;49.696;10.808;2022-10-15T02:23:17;50.00;45.43;75.20;;
64079;Laerm;51042;49.696;10.808;2022-10-15T02:25:46;58.91;45.80;93.97;;
64079;Laerm;51042;49.696;10.808;2022-10-15T02:28:14;53.17;48.44;80.83;;
64079;Laerm;51042;49.696;10.808;2022-10-15T02:30:43;52.87;49.38;69.30;;
64079;Laerm;51042;49.696;10.808;2022-10-15T02:33:10;52.48;49.11;65.27;;
64079;Laerm;51042;49.696;10.808;2022-10-15T02:35:36;52.78;49.33;73.77;;
64079;Laerm;51042;49.696;10.808;2022-10-15T02:38:05;51.89;48.79;62.76;;
64079;Laerm;51042;49.696;10.808;2022-10-15T02:40:33;55.82;49.08;71.00;;
64079;Laerm;51042;49.696;10.808;2022-10-15T02:43:03;53.19;49.03;75.69;;
64079;Laerm;51042;49.696;10.808;2022-10-15T02:45:29;65.02;50.77;100.42;;
64079;Laerm;51042;49.696;10.808;2022-10-15T02:47:54;55.05;50.98;77.06;;
64079;Laerm;51042;49.696;10.808;2022-10-15T02:50:20;55.59;52.09;80.36;;
64079;Laerm;51042;49.696;10.808;2022-10-15T02:52:45;68.61;51.92;104.40;;
64079;Laerm;51042;49.696;10.808;2022-10-15T02:55:10;54.75;51.61;80.45;;
64079;Laerm;51042;49.696;10.808;2022-10-15T02:57:36;58.94;52.02;73.20;;
64079;Laerm;51042;49.696;10.808;2022-10-15T03:00:02;55.76;50.47;70.61;;
64079;Laerm;51042;49.696;10.808;2022-10-15T03:02:28;57.86;49.78;72.86;;
64079;Laerm;51042;49.696;10.808;2022-10-15T03:04:53;59.04;49.11;74.34;;
64079;Laerm;51042;49.696;10.808;2022-10-15T03:07:18;62.00;48.46;97.68;;
64079;Laerm;51042;49.696;10.808;2022-10-15T03:09:44;57.90;47.86;74.46;;
64079;Laerm;51042;49.696;10.808;2022-10-15T03:12:09;50.74;46.94;74.43;;
64079;Laerm;51042;49.696;10.808;2022-10-15T03:14:34;49.85;45.54;60.11;;
64079;Laerm;51042;49.696;10.808;2022-10-15T03:17:00;57.22;45.46;73.53;;
64079;Laerm;51042;49.696;10.808;2022-10-15T03:19:25;59.83;45.01;74.18;;
64079;Laerm;51042;49.696;10.808;2022-10-15T03:21:50;59.80;43.53;74.74;;
64079;Laerm;51042;49.696;10.808;2022-10-15T03:24:15;47.51;43.81;65.45;;
64079;Laerm;51042;49.696;10.808;2022-10-15T03:26:41;52.78;43.60;72.24;;
64079;Laerm;51042;49.696;10.808;2022-10-15T03:29:06;47.09;43.13;59.94;;
64079;Laerm;51042;49.696;10.808;2022-10-15T03:31:31;46.76;42.08;61.01;;
64079;Laerm;51042;49.696;10.808;2022-10-15T03:33:57;58.08;42.96;74.23;;
64079;Laerm;51042;49.696;10.808;2022-10-15T03:36:22;61.20;42.44;74.51;;
64079;Laerm;51042;49.696;10.808;2022-10-15T03:38:47;56.04;43.61;72.64;;
64079;Laerm;51042;49.696;10.808;2022-10-15T03:41:13;54.67;43.47;70.98;;
64079;Laerm;51042;49.696;10.808;2022-10-15T03:43:38;60.41;44.54;73.00;;
64079;Laerm;51042;49.696;10.808;2022-10-15T03:46:04;60.30;46.82;74.71;;
64079;Laerm;51042;49.696;10.808;2022-10-15T03:48:30;58.01;45.66;69.82;;
64079;Laerm;51042;49.696;10.808;2022-10-15T03:50:55;53.83;45.70;69.11;;
64079;Laerm;51042;49.696;10.808;2022-10-15T03:53:21;60.53;45.80;78.76;;
64079;Laerm;51042;49.696;10.808;2022-10-15T03:55:46;59.77;46.27;74.10;;
64079;Laerm;51042;49.696;10.808;2022-10-15T03:58:12;60.14;47.49;76.26;;
64079;Laerm;51042;49.696;10.808;2022-10-15T04:00:41;60.05;48.66;72.32;;
64079;Laerm;51042;49.696;10.808;2022-10-15T04:03:06;64.68;51.11;89.52;;
64079;Laerm;51042;49.696;10.808;2022-10-15T04:05:32;63.35;51.13;73.47;;
64079;Laerm;51042;49.696;10.808;2022-10-15T04:07:57;62.36;49.89;73.20;;
64079;Laerm;51042;49.696;10.808;2022-10-15T04:10:22;54.84;49.55;68.61;;
64079;Laerm;51042;49.696;10.808;2022-10-15T04:12:48;59.26;49.03;75.22;;
64079;Laerm;51042;49.696;10.808;2022-10-15T04:15:13;60.10;48.96;76.78;;
64079;Laerm;51042;49.696;10.808;2022-10-15T04:17:38;61.19;49.11;76.14;;
64079;Laerm;51042;49.696;10.808;2022-10-15T04:20:04;52.24;48.84;68.19;;
64079;Laerm;51042;49.696;10.808;2022-10-15T04:22:29;57.30;48.22;74.08;;
64079;Laerm;51042;49.696;10.808;2022-10-15T04:24:54;57.09;46.54;70.37;;
64079;Laerm;51042;49.696;10.808;2022-10-15T04:27:20;49.63;44.67;61.04;;
64079;Laerm;51042;49.696;10.808;2022-10-15T04:29:46;59.72;45.74;79.86;;
64079;Laerm;51042;49.696;10.808;2022-10-15T04:32:13;58.28;49.80;76.29;;
64079;Laerm;51042;49.696;10.808;2022-10-15T04:34:39;60.06;50.94;78.07;;
64079;Laerm;51042;49.696;10.808;2022-10-15T04:37:04;60.83;51.40;75.05;;
64079;Laerm;51042;49.696;10.808;2022-10-15T04:39:30;65.22;52.18;99.54;;
64079;Laerm;51042;49.696;10.808;2022-10-15T04:41:55;54.54;51.93;68.76;;
64079;Laerm;51042;49.696;10.808;2022-10-15T04:44:23;58.86;52.29;81.03;;
64079;Laerm;51042;49.696;10.808;2022-10-15T04:46:48;59.79;52.27;71.58;;
64079;Laerm;51042;49.696;10.808;2022-10-15T04:49:14;69.24;53.33;87.47;;
64079;Laerm;51042;49.696;10.808;2022-10-15T04:51:39;60.97;51.79;75.12;;
64079;Laerm;51042;49.696;10.808;2022-10-15T04:54:04;59.53;51.43;71.67;;
64079;Laerm;51042;49.696;10.808;2022-10-15T04:56:30;59.89;51.18;73.51;;
64079;Laerm;51042;49.696;10.808;2022-10-15T04:58:56;64.46;52.33;76.15;;
64079;Laerm;51042;49.696;10.808;2022-10-15T05:01:21;62.64;52.32;76.08;;
64079;Laerm;51042;49.696;10.808;2022-10-15T05:03:47;61.06;51.77;73.17;;
64079;Laerm;51042;49.696;10.808;2022-10-15T05:06:16;58.56;50.96;71.95;;
64079;Laerm;51042;49.696;10.808;2022-10-15T05:08:42;59.55;49.09;71.05;;
64079;Laerm;51042;49.696;10.808;2022-10-15T05:11:34;58.03;47.39;74.67;;
64079;Laerm;51042;49.696;10.808;2022-10-15T05:14:01;60.70;46.19;73.12;;
64079;Laerm;51042;49.696;10.808;2022-10-15T05:16:27;50.03;44.68;69.08;;
64079;Laerm;51042;49.696;10.808;2022-10-15T05:18:58;48.21;42.99;65.95;;
64079;Laerm;51042;49.696;10.808;2022-10-15T05:21:25;69.36;42.64;87.00;;
64079;Laerm;51042;49.696;10.808;2022-10-15T05:23:50;56.54;42.28;71.20;;
64079;Laerm;51042;49.696;10.808;2022-10-15T05:26:18;60.28;44.33;73.82;;
64079;Laerm;51042;49.696;10.808;2022-10-15T05:28:44;61.83;45.54;75.96;;
64079;Laerm;51042;49.696;10.808;2022-10-15T05:31:13;58.09;44.90;74.89;;
64079;Laerm;51042;49.696;10.808;2022-10-15T05:33:39;59.91;45.22;71.03;;
64079;Laerm;51042;49.696;10.808;2022-10-15T05:36:08;63.64;46.91;77.32;;
64079;Laerm;51042;49.696;10.808;2022-10-15T05:38:34;61.12;47.63;73.76;;
64079;Laerm;51042;49.696;10.808;2022-10-15T05:40:59;60.77;46.25;74.04;;
64079;Laerm;51042;49.696;10.808;2022-10-15T05:43:24;62.09;46.27;73.61;;
64079;Laerm;51042;49.696;10.808;2022-10-15T05:45:54;60.77;45.54;73.21;;
64079;Laerm;51042;49.696;10.808;2022-10-15T05:48:19;62.49;45.10;76.11;;
64079;Laerm;51042;49.696;10.808;2022-10-15T05:50:45;64.26;43.58;76.32;;
64079;Laerm;51042;49.696;10.808;2022-10-15T05:53:10;61.49;42.66;75.96;;
64079;Laerm;51042;49.696;10.808;2022-10-15T05:55:35;61.70;41.63;75.38;;
64079;Laerm;51042;49.696;10.808;2022-10-15T05:58:02;63.58;41.55;81.39;;
64079;Laerm;51042;49.696;10.808;2022-10-15T06:00:27;58.13;41.29;70.68;;
64079;Laerm;51042;49.696;10.808;2022-10-15T06:02:53;61.68;40.09;80.12;;
64079;Laerm;51042;49.696;10.808;2022-10-15T06:05:18;62.78;40.18;86.55;;
64079;Laerm;51042;49.696;10.808;2022-10-15T06:07:44;59.20;39.74;73.03;;
64079;Laerm;51042;49.696;10.808;2022-10-15T06:10:09;57.74;41.31;68.60;;
64079;Laerm;51042;49.696;10.808;2022-10-15T06:12:35;61.46;40.66;72.93;;
64079;Laerm;51042;49.696;10.808;2022-10-15T06:15:00;55.49;40.37;72.89;;
64079;Laerm;51042;49.696;10.808;2022-10-15T06:17:25;62.17;41.28;75.88;;
64079;Laerm;51042;49.696;10.808;2022-10-15T06:19:51;60.94;41.54;72.49;;
64079;Laerm;51042;49.696;10.808;2022-10-15T06:22:16;59.94;41.18;71.79;;
64079;Laerm;51042;49.696;10.808;2022-10-15T06:24:41;60.62;40.06;72.25;;
64079;Laerm;51042;49.696;10.808;2022-10-15T06:27:06;60.83;39.51;71.55;;
64079;Laerm;51042;49.696;10.808;2022-10-15T06:29:34;59.77;40.40;70.31;;
64079;Laerm;51042;49.696;10.808;2022-10-15T06:31:59;60.41;40.12;70.99;;
64079;Laerm;51042;49.696;10.808;2022-10-15T06:34:25;60.32;39.51;71.82;;
64079;Laerm;51042;49.696;10.808;2022-10-15T06:36:51;64.41;46.26;75.87;;
64079;Laerm;51042;49.696;10.808;2022-10-15T06:39:16;61.50;43.36;72.85;;
64079;Laerm;51042;49.696;10.808;2022-10-15T06:41:42;57.29;40.71;73.25;;
64079;Laerm;51042;49.696;10.808;2022-10-15T06:44:07;62.47;41.60;74.99;;
64079;Laerm;51042;49.696;10.808;2022-10-15T06:46:32;62.16;41.28;72.55;;
64079;Laerm;51042;49.696;10.808;2022-10-15T06:48:58;61.59;40.71;71.73;;
64079;Laerm;51042;49.696;10.808;2022-10-15T06:51:23;61.93;43.56;71.30;;
64079;Laerm;51042;49.696;10.808;2022-10-15T06:53:48;60.40;40.79;72.49;;
64079;Laerm;51042;49.696;10.808;2022-10-15T06:56:13;62.96;40.64;73.29;;
64079;Laerm;51042;49.696;10.808;2022-10-15T06:58:41;64.65;40.45;83.10;;
64079;Laerm;51042;49.696;10.808;2022-10-15T07:01:07;61.89;40.73;71.57;;
64079;Laerm;51042;49.696;10.808;2022-10-15T07:03:34;58.59;41.17;71.24;;
64079;Laerm;51042;49.696;10.808;2022-10-15T07:06:04;62.77;40.04;75.79;;
64079;Laerm;51042;49.696;10.808;2022-10-15T07:08:31;61.44;42.95;74.46;;
64079;Laerm;51042;49.696;10.808;2022-10-15T07:10:56;61.01;39.90;76.56;;
64079;Laerm;51042;49.696;10.808;2022-10-15T07:13:22;63.81;40.76;77.48;;
64079;Laerm;51042;49.696;10.808;2022-10-15T07:15:47;62.76;40.46;74.90;;
64079;Laerm;51042;49.696;10.808;2022-10-15T07:18:18;64.34;40.61;81.39;;
64079;Laerm;51042;49.696;10.808;2022-10-15T07:20:43;62.31;41.73;72.98;;
64079;Laerm;51042;49.696;10.808;2022-10-15T07:23:08;62.97;42.32;75.66;;
64079;Laerm;51042;49.696;10.808;2022-10-15T07:25:34;65.04;42.61;75.47;;
64079;Laerm;51042;49.696;10.808;2022-10-15T07:28:00;63.07;42.91;72.52;;
64079;Laerm;51042;49.696;10.808;2022-10-15T07:30:25;64.00;43.73;76.24;;
64079;Laerm;51042;49.696;10.808;2022-10-15T07:32:57;62.75;41.25;80.13;;
64079;Laerm;51042;49.696;10.808;2022-10-15T07:35:24;63.08;45.04;75.15;;
64079;Laerm;51042;49.696;10.808;2022-10-15T07:37:49;63.46;42.04;77.23;;
64079;Laerm;51042;49.696;10.808;2022-10-15T07:40:16;64.69;41.63;77.88;;
64079;Laerm;51042;49.696;10.808;2022-10-15T07:42:41;64.33;42.03;76.83;;
64079;Laerm;51042;49.696;10.808;2022-10-15T07:45:07;63.46;41.67;71.93;;
64079;Laerm;51042;49.696;10.808;2022-10-15T07:47:32;64.76;47.70;73.82;;
64079;Laerm;51042;49.696;10.808;2022-10-15T07:49:58;64.60;45.90;75.62;;
64079;Laerm;51042;49.696;10.808;2022-10-15T07:52:23;63.67;42.66;73.96;;
64079;Laerm;51042;49.696;10.808;2022-10-15T07:54:48;64.42;44.95;81.35;;
64079;Laerm;51042;49.696;10.808;2022-10-15T07:57:14;65.40;47.17;74.86;;
64079;Laerm;51042;49.696;10.808;2022-10-15T07:59:39;64.89;42.64;74.08;;
64079;Laerm;51042;49.696;10.808;2022-10-15T08:02:04;63.03;42.83;71.88;;
64079;Laerm;51042;49.696;10.808;2022-10-15T08:04:30;63.50;43.29;74.61;;
64079;Laerm;51042;49.696;10.808;2022-10-15T08:06:55;64.43;46.96;75.82;;
64079;Laerm;51042;49.696;10.808;2022-10-15T08:09:21;64.94;49.60;75.18;;
64079;Laerm;51042;49.696;10.808;2022-10-15T08:11:46;68.09;47.15;84.13;;
64079;Laerm;51042;49.696;10.808;2022-10-15T08:14:11;64.21;42.60;73.02;;
64079;Laerm;51042;49.696;10.808;2022-10-15T08:16:37;65.53;43.22;75.18;;
64079;Laerm;51042;49.696;10.808;2022-10-15T08:19:02;65.13;47.52;73.16;;
64079;Laerm;51042;49.696;10.808;2022-10-15T08:21:28;65.52;44.75;74.70;;
64079;Laerm;51042;49.696;10.808;2022-10-15T08:23:53;64.44;43.60;77.33;;
64079;Laerm;51042;49.696;10.808;2022-10-15T08:26:19;64.20;48.47;78.42;;
64079;Laerm;51042;49.696;10.808;2022-10-15T08:28:44;65.46;48.13;74.21;;
64079;Laerm;51042;49.696;10.808;2022-10-15T08:31:10;64.61;49.27;73.56;;
64079;Laerm;51042;49.696;10.808;2022-10-15T08:33:36;62.47;43.74;73.23;;
64079;Laerm;51042;49.696;10.808;2022-10-15T08:36:05;67.27;44.09;81.47;;
64079;Laerm;51042;49.696;10.808;2022-10-15T08:38:31;63.26;43.55;76.49;;
64079;Laerm;51042;49.696;10.808;2022-10-15T08:40:58;63.86;46.37;74.95;;
64079;Laerm;51042;49.696;10.808;2022-10-15T08:43:29;65.97;47.34;72.86;;
64079;Laerm;51042;49.696;10.808;2022-10-15T08:46:00;65.97;47.84;73.07;;
64079;Laerm;51042;49.696;10.808;2022-10-15T08:48:33;66.88;45.26;80.56;;
64079;Laerm;51042;49.696;10.808;2022-10-15T08:51:13;64.62;46.01;74.02;;
64079;Laerm;51042;49.696;10.808;2022-10-15T08:53:47;64.29;45.63;81.11;;
64079;Laerm;51042;49.696;10.808;2022-10-15T08:56:18;65.83;47.82;76.22;;
64079;Laerm;51042;49.696;10.808;2022-10-15T08:59:01;64.61;42.88;75.37;;
64079;Laerm;51042;49.696;10.808;2022-10-15T09:01:50;67.99;50.10;78.84;;
64079;Laerm;51042;49.696;10.808;2022-10-15T09:04:30;66.84;48.12;84.62;;
64079;Laerm;51042;49.696;10.808;2022-10-15T09:07:08;64.20;42.89;72.66;;
64079;Laerm;51042;49.696;10.808;2022-10-15T09:09:47;63.86;43.00;74.29;;
64079;Laerm;51042;49.696;10.808;2022-10-15T09:14:56;66.58;45.63;81.35;;
64079;Laerm;51042;49.696;10.808;2022-10-15T09:17:24;64.58;49.39;71.13;;
64079;Laerm;51042;49.696;10.808;2022-10-15T09:19:53;64.77;47.77;77.88;;
64079;Laerm;51042;49.696;10.808;2022-10-15T09:22:24;65.29;45.06;85.42;;
64079;Laerm;51042;49.696;10.808;2022-10-15T09:24:50;63.27;46.68;72.84;;
64079;Laerm;51042;49.696;10.808;2022-10-15T09:27:32;65.61;43.53;77.71;;
64079;Laerm;51042;49.696;10.808;2022-10-15T09:30:28;64.90;46.82;80.54;;
64079;Laerm;51042;49.696;10.808;2022-10-15T09:43:57;64.03;50.30;75.03;;
64079;Laerm;51042;49.696;10.808;2022-10-15T09:46:23;63.88;43.20;72.57;;
64079;Laerm;51042;49.696;10.808;2022-10-15T09:49:00;63.79;47.65;73.11;;
64079;Laerm;51042;49.696;10.808;2022-10-15T09:51:44;63.61;44.26;73.99;;
64079;Laerm;51042;49.696;10.808;2022-10-15T09:54:28;64.45;44.16;73.00;;
64079;Laerm;51042;49.696;10.808;2022-10-15T09:56:56;64.90;48.05;75.99;;
64079;Laerm;51042;49.696;10.808;2022-10-15T09:59:23;64.62;49.17;76.34;;
64079;Laerm;51042;49.696;10.808;2022-10-15T10:04:40;65.07;46.74;75.96;;
64079;Laerm;51042;49.696;10.808;2022-10-15T10:07:06;61.56;43.55;71.83;;
64079;Laerm;51042;49.696;10.808;2022-10-15T10:09:48;69.49;43.05;86.77;;
64079;Laerm;51042;49.696;10.808;2022-10-15T10:12:22;63.12;47.74;72.45;;
64079;Laerm;51042;49.696;10.808;2022-10-15T10:14:58;61.61;45.77;70.37;;
64079;Laerm;51042;49.696;10.808;2022-10-15T10:17:26;63.30;45.54;80.46;;
64079;Laerm;51042;49.696;10.808;2022-10-15T10:22:29;63.10;45.03;76.95;;
64079;Laerm;51042;49.696;10.808;2022-10-15T10:24:54;63.80;48.27;72.60;;
64079;Laerm;51042;49.696;10.808;2022-10-15T10:27:24;67.57;43.07;81.95;;
64079;Laerm;51042;49.696;10.808;2022-10-15T10:30:02;64.24;43.21;73.92;;
64079;Laerm;51042;49.696;10.808;2022-10-15T10:32:33;65.35;46.83;80.86;;
64079;Laerm;51042;49.696;10.808;2022-10-15T10:34:59;62.91;44.36;81.62;;
64079;Laerm;51042;49.696;10.808;2022-10-15T10:37:25;61.90;44.29;75.16;;
64079;Laerm;51042;49.696;10.808;2022-10-15T10:39:56;65.56;48.64;77.08;;
64079;Laerm;51042;49.696;10.808;2022-10-15T10:42:25;62.67;45.46;71.30;;
64079;Laerm;51042;49.696;10.808;2022-10-15T10:44:52;59.66;41.79;70.54;;
64079;Laerm;51042;49.696;10.808;2022-10-15T10:47:20;59.85;41.75;72.25;;
64079;Laerm;51042;49.696;10.808;2022-10-15T10:49:51;63.03;42.69;72.83;;
64079;Laerm;51042;49.696;10.808;2022-10-15T10:52:32;63.16;43.50;76.40;;
64079;Laerm;51042;49.696;10.808;2022-10-15T10:57:56;63.13;44.80;74.25;;
64079;Laerm;51042;49.696;10.808;2022-10-15T11:00:42;60.80;45.29;72.94;;
64079;Laerm;51042;49.696;10.808;2022-10-15T11:03:47;61.84;44.80;76.53;;
64079;Laerm;51042;49.696;10.808;2022-10-15T11:15:30;61.44;42.33;78.61;;
64079;Laerm;51042;49.696;10.808;2022-10-15T11:20:48;58.90;43.96;70.67;;
64079;Laerm;51042;49.696;10.808;2022-10-15T11:26:30;62.48;46.57;82.87;;
64079;Laerm;51042;49.696;10.808;2022-10-15T11:32:37;62.13;47.01;78.93;;
64079;Laerm;51042;49.696;10.808;2022-10-15T11:40:49;64.21;43.46;75.71;;
64079;Laerm;51042;49.696;10.808;2022-10-15T11:43:27;61.50;43.44;79.99;;
64079;Laerm;51042;49.696;10.808;2022-10-15T11:45:59;63.08;45.64;82.86;;
64079;Laerm;51042;49.696;10.808;2022-10-15T11:51:30;62.41;43.57;74.19;;
64079;Laerm;51042;49.696;10.808;2022-10-15T11:54:26;62.13;45.80;76.50;;
64079;Laerm;51042;49.696;10.808;2022-10-15T11:56:54;61.54;45.06;78.04;;
64079;Laerm;51042;49.696;10.808;2022-10-15T11:59:42;60.64;44.98;71.55;;
64079;Laerm;51042;49.696;10.808;2022-10-15T12:02:15;61.21;43.09;72.99;;
64079;Laerm;51042;49.696;10.808;2022-10-15T12:04:59;64.59;47.65;81.45;;
64079;Laerm;51042;49.696;10.808;2022-10-15T12:07:47;60.73;43.00;72.97;;
64079;Laerm;51042;49.696;10.808;2022-10-15T12:12:56;62.06;45.51;82.44;;
64079;Laerm;51042;49.696;10.808;2022-10-15T12:15:30;59.43;42.22;71.77;;
64079;Laerm;51042;49.696;10.808;2022-10-15T12:20:46;63.07;45.77;72.27;;
64079;Laerm;51042;49.696;10.808;2022-10-15T12:23:39;58.98;41.84;71.13;;
64079;Laerm;51042;49.696;10.808;2022-10-15T12:28:54;63.71;43.09;79.63;;
64079;Laerm;51042;49.696;10.808;2022-10-15T12:31:20;59.96;41.63;71.21;;
64079;Laerm;51042;49.696;10.808;2022-10-15T12:33:49;62.01;41.51;71.93;;
64079;Laerm;51042;49.696;10.808;2022-10-15T12:39:04;61.48;41.85;75.51;;
64079;Laerm;51042;49.696;10.808;2022-10-15T12:41:40;59.37;42.08;72.58;;
64079;Laerm;51042;49.696;10.808;2022-10-15T12:46:46;62.06;42.98;78.34;;
64079;Laerm;51042;49.696;10.808;2022-10-15T12:51:53;61.52;40.68;73.21;;
64079;Laerm;51042;49.696;10.808;2022-10-15T12:54:40;60.90;42.73;69.68;;
64079;Laerm;51042;49.696;10.808;2022-10-15T12:59:59;62.96;43.59;76.30;;
64079;Laerm;51042;49.696;10.808;2022-10-15T13:02:39;59.45;42.20;72.49;;
64079;Laerm;51042;49.696;10.808;2022-10-15T13:05:08;60.97;45.08;69.99;;
64079;Laerm;51042;49.696;10.808;2022-10-15T13:07:47;61.56;42.86;71.43;;
64079;Laerm;51042;49.696;10.808;2022-10-15T13:10:29;62.28;44.04;73.07;;
64079;Laerm;51042;49.696;10.808;2022-10-15T13:13:01;59.71;44.03;71.43;;
64079;Laerm;51042;49.696;10.808;2022-10-15T13:15:29;59.06;43.33;72.19;;
64079;Laerm;51042;49.696;10.808;2022-10-15T13:17:59;59.75;43.40;73.54;;
64079;Laerm;51042;49.696;10.808;2022-10-15T13:23:15;62.14;44.09;75.19;;
64079;Laerm;51042;49.696;10.808;2022-10-15T13:25:41;61.48;43.60;73.14;;
64079;Laerm;51042;49.696;10.808;2022-10-15T13:28:29;60.21;44.41;70.49;;
64079;Laerm;51042;49.696;10.808;2022-10-15T13:30:55;59.90;43.73;73.49;;
64079;Laerm;51042;49.696;10.808;2022-10-15T13:33:21;72.21;50.23;92.70;;
64079;Laerm;51042;49.696;10.808;2022-10-15T13:35:46;63.92;49.57;75.08;;
64079;Laerm;51042;49.696;10.808;2022-10-15T13:38:20;59.17;42.65;69.91;;
64079;Laerm;51042;49.696;10.808;2022-10-15T13:40:48;62.01;44.39;76.05;;
64079;Laerm;51042;49.696;10.808;2022-10-15T13:45:56;63.13;42.60;75.56;;
64079;Laerm;51042;49.696;10.808;2022-10-15T13:48:27;64.15;43.55;83.44;;
64079;Laerm;51042;49.696;10.808;2022-10-15T13:50:56;61.01;42.07;71.37;;
64079;Laerm;51042;49.696;10.808;2022-10-15T13:53:26;61.94;42.24;73.40;;
64079;Laerm;51042;49.696;10.808;2022-10-15T13:55:58;59.68;41.65;76.69;;
64079;Laerm;51042;49.696;10.808;2022-10-15T13:58:33;61.22;42.62;72.07;;
64079;Laerm;51042;49.696;10.808;2022-10-15T14:01:12;62.50;45.51;77.71;;
64079;Laerm;51042;49.696;10.808;2022-10-15T14:03:55;63.70;45.54;74.93;;
64079;Laerm;51042;49.696;10.808;2022-10-15T14:08:48;62.47;45.18;73.96;;
64079;Laerm;51042;49.696;10.808;2022-10-15T14:11:14;60.79;41.13;72.50;;
64079;Laerm;51042;49.696;10.808;2022-10-15T14:13:51;60.50;42.54;72.21;;
64079;Laerm;51042;49.696;10.808;2022-10-15T14:16:25;61.39;43.03;72.57;;
64079;Laerm;51042;49.696;10.808;2022-10-15T14:18:55;62.09;41.11;78.82;;
64079;Laerm;51042;49.696;10.808;2022-10-15T14:21:23;60.77;41.81;74.23;;
64079;Laerm;51042;49.696;10.808;2022-10-15T14:24:09;58.85;41.68;69.58;;
64079;Laerm;51042;49.696;10.808;2022-10-15T14:26:36;61.16;43.28;73.16;;
64079;Laerm;51042;49.696;10.808;2022-10-15T14:29:03;62.32;42.17;73.18;;
64079;Laerm;51042;49.696;10.808;2022-10-15T14:33:59;59.68;42.11;73.14;;
64079;Laerm;51042;49.696;10.808;2022-10-15T14:36:27;60.92;45.05;73.95;;
64079;Laerm;51042;49.696;10.808;2022-10-15T14:38:54;63.08;45.53;73.30;;
64079;Laerm;51042;49.696;10.808;2022-10-15T14:41:28;57.54;41.49;70.31;;
64079;Laerm;51042;49.696;10.808;2022-10-15T14:46:42;58.32;40.67;71.16;;
64079;Laerm;51042;49.696;10.808;2022-10-15T14:49:26;59.55;41.34;73.71;;
64079;Laerm;51042;49.696;10.808;2022-10-15T14:51:55;60.50;41.28;71.24;;
64079;Laerm;51042;49.696;10.808;2022-10-15T14:54:25;66.82;40.39;83.37;;
64079;Laerm;51042;49.696;10.808;2022-10-15T14:56:54;61.26;40.86;74.32;;
64079;Laerm;51042;49.696;10.808;2022-10-15T14:59:24;62.30;41.84;72.48;;
64079;Laerm;51042;49.696;10.808;2022-10-15T15:01:57;62.02;43.17;82.33;;
64079;Laerm;51042;49.696;10.808;2022-10-15T15:04:38;60.58;41.46;72.29;;
64079;Laerm;51042;49.696;10.808;2022-10-15T15:07:17;60.82;40.83;71.64;;
64079;Laerm;51042;49.696;10.808;2022-10-15T15:09:46;61.89;41.87;79.01;;
64079;Laerm;51042;49.696;10.808;2022-10-15T15:12:15;62.88;42.12;74.57;;
64079;Laerm;51042;49.696;10.808;2022-10-15T15:14:41;62.65;40.58;75.53;;
64079;Laerm;51042;49.696;10.808;2022-10-15T15:17:13;62.27;41.33;80.52;;
64079;Laerm;51042;49.696;10.808;2022-10-15T15:19:39;62.06;43.67;73.26;;
64079;Laerm;51042;49.696;10.808;2022-10-15T15:22:04;60.67;41.65;70.15;;
64079;Laerm;51042;49.696;10.808;2022-10-15T15:24:32;60.74;42.31;70.18;;
64079;Laerm;51042;49.696;10.808;2022-10-15T15:26:57;61.46;42.22;74.99;;
64079;Laerm;51042;49.696;10.808;2022-10-15T15:29:24;60.99;41.45;72.23;;
64079;Laerm;51042;49.696;10.808;2022-10-15T15:31:49;60.14;41.71;71.50;;
64079;Laerm;51042;49.696;10.808;2022-10-15T15:34:15;60.73;42.96;71.51;;